SBVT/VIX METAR and TAF weather

Enter ICAO airport designator
Station Type Date Time Source
SBVT METAR 2019/04/18 22:00 UTC NOAA

SBVT 182200Z 19006KT 9999 FEW023 SCT050 27/23 Q1012


Station Type Date Time Source
SBVT Decoded METAR 2019/04/18 22:00 UTC NOAA

Vitoria Aeroporto , Brazil (SBVT) 20-16S 040-17W 4M
Apr 18, 2019 - 06:00 PM EDT / 2019.04.18 2200 UTC
Wind: from the S (190 degrees) at 7 MPH (6 KT):0
Visibility: greater than 7 mile(s):0
Sky conditions: partly cloudy
Temperature: 80 F (27 C)
Dew Point: 73 F (23 C)
Relative Humidity: 78%
Pressure (altimeter): 29.88 in. Hg (1012 hPa)
ob: SBVT 182200Z 19006KT 9999 FEW023 SCT050 27/23 Q1012
cycle: 22

Station Type Date Time Source
SBVT TAF 2019/04/18 18:24 UTC NOAA

TAF SBVT 181600Z 1818/1918 17007KT 9999 SCT020 TN22/1907Z TX29/1915Z
RMK PEC

Example: see airport list